createdAt,value
2022-09-03T00:05:56.593Z,17.20
2022-09-03T00:08:35.624Z,17.20
2022-09-03T00:14:27.061Z,17.10
2022-09-03T00:17:04.525Z,17.10
2022-09-03T00:22:38.070Z,17.00
2022-09-03T00:25:07.883Z,17.00
2022-09-03T00:27:39.706Z,17.00
2022-09-03T00:30:13.747Z,17.00
2022-09-03T00:32:56.083Z,17.00
2022-09-03T00:35:32.153Z,17.10
2022-09-03T00:38:00.579Z,17.10
2022-09-03T00:40:49.508Z,17.00
2022-09-03T00:43:47.800Z,17.00
2022-09-03T00:46:19.548Z,17.00
2022-09-03T00:49:20.065Z,16.90
2022-09-03T00:52:06.159Z,16.90
2022-09-03T00:55:02.522Z,16.90
2022-09-03T00:57:57.852Z,16.90
2022-09-03T01:00:24.590Z,16.90
2022-09-03T01:03:08.700Z,16.80
2022-09-03T01:05:41.372Z,16.70
2022-09-03T01:08:26.701Z,16.70
2022-09-03T01:11:20.029Z,16.70
2022-09-03T01:13:55.931Z,16.60
2022-09-03T01:16:36.882Z,16.60
2022-09-03T01:19:35.581Z,16.60
2022-09-03T01:22:08.006Z,16.60
2022-09-03T01:24:49.912Z,16.60
2022-09-03T01:27:43.993Z,16.50
2022-09-03T01:30:18.453Z,16.50
2022-09-03T01:33:16.996Z,16.50
2022-09-03T01:35:55.264Z,16.50
2022-09-03T01:38:44.660Z,16.50
2022-09-03T01:42:03.746Z,16.40
2022-09-03T01:45:06.328Z,16.40
2022-09-03T01:48:12.930Z,16.40
2022-09-03T01:51:00.216Z,16.40
2022-09-03T01:53:39.035Z,16.40
2022-09-03T01:56:36.099Z,16.40
2022-09-03T01:59:21.535Z,16.40
2022-09-03T02:02:03.882Z,16.40
2022-09-03T02:04:31.754Z,16.30
2022-09-03T02:07:00.742Z,16.30
2022-09-03T02:09:32.973Z,16.30
2022-09-03T02:12:13.774Z,16.30
2022-09-03T02:14:40.938Z,16.30
2022-09-03T02:17:08.360Z,16.30
2022-09-03T02:19:37.746Z,16.30
2022-09-03T02:22:05.270Z,16.40
2022-09-03T02:24:32.896Z,16.40
2022-09-03T02:26:59.551Z,16.40
2022-09-03T02:29:26.917Z,16.50
2022-09-03T02:31:54.563Z,16.50
2022-09-03T02:34:21.310Z,16.50
2022-09-03T02:36:48.098Z,16.50
2022-09-03T02:39:16.326Z,16.50
2022-09-03T02:41:44.001Z,16.60
2022-09-03T02:44:27.221Z,16.60
2022-09-03T02:46:58.686Z,16.60
2022-09-03T02:49:25.409Z,16.60
2022-09-03T02:51:52.021Z,16.70
2022-09-03T02:54:21.063Z,16.70
2022-09-03T02:56:49.763Z,16.70
2022-09-03T02:59:17.885Z,16.70
2022-09-03T03:01:46.474Z,16.70
2022-09-03T03:04:13.664Z,16.80
2022-09-03T03:06:40.442Z,16.70
2022-09-03T03:09:08.584Z,16.80
2022-09-03T03:11:37.065Z,16.80
2022-09-03T03:14:04.018Z,16.80
2022-09-03T03:16:30.805Z,16.80
2022-09-03T03:18:57.775Z,16.80
2022-09-03T03:21:24.509Z,16.80
2022-09-03T03:23:51.193Z,16.80
2022-09-03T03:26:19.771Z,16.80
2022-09-03T03:28:48.777Z,16.90
2022-09-03T03:31:20.952Z,16.80
2022-09-03T03:33:53.180Z,16.80
2022-09-03T03:36:20.501Z,16.80
2022-09-03T03:38:47.453Z,16.80
2022-09-03T03:41:17.402Z,16.80
2022-09-03T03:43:45.042Z,16.80
2022-09-03T03:46:12.417Z,16.80
2022-09-03T03:48:39.560Z,16.80
2022-09-03T03:51:08.646Z,16.80
2022-09-03T03:53:37.549Z,16.80
2022-09-03T03:56:07.254Z,16.80
2022-09-03T03:58:33.941Z,16.80
2022-09-03T04:01:15.023Z,16.80
2022-09-03T04:03:42.725Z,16.80
2022-09-03T04:06:11.213Z,16.80
2022-09-03T04:08:40.233Z,16.70
2022-09-03T04:11:09.924Z,16.70
2022-09-03T04:13:37.873Z,16.70
2022-09-03T04:16:09.241Z,16.70
2022-09-03T04:18:37.049Z,16.70
2022-09-03T04:21:16.234Z,16.60
2022-09-03T04:23:45.188Z,16.60
2022-09-03T04:26:14.721Z,16.70
2022-09-03T04:28:42.075Z,16.70
2022-09-03T04:31:11.458Z,16.60
2022-09-03T04:33:38.724Z,16.60
2022-09-03T04:36:10.091Z,16.60
2022-09-03T04:38:39.075Z,16.60
2022-09-03T04:41:07.668Z,16.60
2022-09-03T04:43:34.532Z,16.60
2022-09-03T04:46:03.240Z,16.50
2022-09-03T04:48:31.647Z,16.50
2022-09-03T04:51:13.463Z,16.50
2022-09-03T04:53:42.359Z,16.50
2022-09-03T04:56:20.760Z,16.40
2022-09-03T04:58:50.979Z,16.40
2022-09-03T05:01:20.929Z,16.40
2022-09-03T05:03:47.649Z,16.40
2022-09-03T05:06:17.191Z,16.30
2022-09-03T05:08:47.538Z,16.40
2022-09-03T05:11:14.745Z,16.40
2022-09-03T05:13:41.364Z,16.40
2022-09-03T05:16:13.072Z,16.50
2022-09-03T05:18:42.315Z,16.50
2022-09-03T05:21:11.120Z,16.50
2022-09-03T05:23:39.795Z,16.50
2022-09-03T05:26:10.847Z,16.60
2022-09-03T05:28:39.985Z,16.60
2022-09-03T05:31:09.339Z,16.60
2022-09-03T05:33:37.903Z,16.60
2022-09-03T05:36:06.290Z,16.70
2022-09-03T05:38:33.059Z,16.80
2022-09-03T05:41:05.219Z,16.80
2022-09-03T05:43:32.991Z,16.90
2022-09-03T05:46:01.426Z,16.90
2022-09-03T05:48:30.945Z,16.80
2022-09-03T05:51:09.781Z,16.80
2022-09-03T05:53:39.067Z,16.90
2022-09-03T05:56:10.787Z,17.00
2022-09-03T05:58:41.250Z,17.10
2022-09-03T06:01:31.270Z,17.00
2022-09-03T06:04:05.722Z,17.00
2022-09-03T06:06:35.403Z,17.00
2022-09-03T06:09:03.832Z,17.10
2022-09-03T06:11:31.787Z,17.10
2022-09-03T06:14:08.097Z,17.00
2022-09-03T06:16:37.410Z,17.00
2022-09-03T06:19:09.840Z,17.10
2022-09-03T06:21:42.850Z,17.10
2022-09-03T06:24:12.057Z,17.00
2022-09-03T06:26:40.052Z,17.10
2022-09-03T06:29:09.689Z,17.10
2022-09-03T06:31:36.427Z,17.00
2022-09-03T06:34:04.329Z,16.90
2022-09-03T06:36:31.419Z,16.80
2022-09-03T06:38:58.539Z,17.00
2022-09-03T06:41:28.344Z,17.00
2022-09-03T06:46:54.854Z,17.10
2022-09-03T06:49:21.804Z,17.00
2022-09-03T06:51:48.740Z,17.00
2022-09-03T06:54:16.203Z,17.10
2022-09-03T06:56:43.140Z,17.10
2022-09-03T06:59:12.561Z,17.10
2022-09-03T07:01:41.210Z,17.10
2022-09-03T07:04:13.075Z,17.20
2022-09-03T07:06:42.799Z,17.10
2022-09-03T07:09:11.692Z,17.10
2022-09-03T07:11:46.773Z,17.20
2022-09-03T07:14:14.795Z,17.30
2022-09-03T07:16:44.301Z,17.30
2022-09-03T07:22:03.686Z,17.00
2022-09-03T07:24:30.531Z,17.20
2022-09-03T07:26:58.588Z,17.20
2022-09-03T07:29:25.439Z,17.40
2022-09-03T07:31:53.567Z,17.30
2022-09-03T07:34:24.097Z,17.20
2022-09-03T07:36:51.861Z,17.10
2022-09-03T07:39:19.562Z,16.80
2022-09-03T07:41:47.555Z,17.00
2022-09-03T07:44:20.020Z,17.10
2022-09-03T07:46:51.131Z,17.10
2022-09-03T07:49:20.351Z,17.10
2022-09-03T07:51:50.627Z,17.00
2022-09-03T07:54:17.830Z,16.90
2022-09-03T07:56:44.873Z,16.80
2022-09-03T07:59:12.232Z,16.90
2022-09-03T08:01:41.785Z,17.00
2022-09-03T08:04:09.873Z,17.20
2022-09-03T08:06:38.599Z,17.00
2022-09-03T08:09:08.814Z,16.90
2022-09-03T08:11:40.794Z,16.80
2022-09-03T08:14:12.846Z,16.60
2022-09-03T08:16:48.180Z,16.50
2022-09-03T08:19:16.151Z,16.60
2022-09-03T08:21:42.994Z,16.80
2022-09-03T08:29:52.795Z,16.60
2022-09-03T08:32:21.262Z,16.80
2022-09-03T08:34:48.204Z,17.00
2022-09-03T08:37:15.045Z,17.20
2022-09-03T08:39:41.923Z,17.50
2022-09-03T08:42:30.954Z,17.60
2022-09-03T08:48:25.700Z,17.90
2022-09-03T08:51:00.114Z,17.40
2022-09-03T08:53:33.589Z,17.20
2022-09-03T08:56:07.555Z,17.20
2022-09-03T08:58:38.653Z,17.00
2022-09-03T09:01:22.737Z,17.20
2022-09-03T09:07:14.742Z,18.00
2022-09-03T09:10:03.808Z,18.30
2022-09-03T09:12:45.596Z,18.70
2022-09-03T09:18:46.351Z,19.50
2022-09-03T09:21:21.943Z,19.10
2022-09-03T09:23:51.604Z,18.60
2022-09-03T09:26:21.575Z,18.50
2022-09-03T09:29:00.655Z,18.20
2022-09-03T09:34:22.083Z,18.20
2022-09-03T09:36:54.082Z,18.60
2022-09-03T09:39:21.463Z,18.40
2022-09-03T09:42:08.273Z,18.00
2022-09-03T09:44:43.338Z,18.40
2022-09-03T09:47:25.167Z,18.60
2022-09-03T09:49:58.265Z,18.50
2022-09-03T09:52:28.585Z,18.60
2022-09-03T09:55:09.102Z,18.30
2022-09-03T09:57:37.219Z,18.10
2022-09-03T10:00:17.784Z,18.30
2022-09-03T10:02:54.493Z,18.30
2022-09-03T10:05:39.058Z,18.20
2022-09-03T10:08:18.979Z,18.30
2022-09-03T10:10:50.991Z,18.60
2022-09-03T10:13:48.602Z,19.00
2022-09-03T10:16:39.817Z,19.10
2022-09-03T10:19:06.390Z,19.20
2022-09-03T10:21:45.001Z,19.00
2022-09-03T10:24:26.450Z,19.20
2022-09-03T10:26:53.182Z,19.50
2022-09-03T10:29:29.452Z,19.70
2022-09-03T10:32:23.013Z,19.90
2022-09-03T10:35:04.857Z,20.60
2022-09-03T10:37:41.100Z,20.50
2022-09-03T10:40:30.890Z,20.30
2022-09-03T10:43:32.511Z,20.50
2022-09-03T10:46:23.883Z,20.20
2022-09-03T10:49:10.583Z,19.90
2022-09-03T10:51:47.428Z,20.20
2022-09-03T10:54:49.745Z,20.30
2022-09-03T10:57:31.699Z,20.00
2022-09-03T11:00:11.874Z,19.90
2022-09-03T11:03:12.638Z,20.10
2022-09-03T11:12:05.126Z,20.00
2022-09-03T11:14:46.856Z,20.10
2022-09-03T11:17:47.246Z,20.30
2022-09-03T11:20:23.815Z,20.30
2022-09-03T11:25:57.236Z,20.60
2022-09-03T11:28:49.368Z,20.60
2022-09-03T11:31:57.819Z,20.40
2022-09-03T11:37:25.039Z,20.00
2022-09-03T11:39:59.945Z,19.90
2022-09-03T11:42:39.105Z,20.20
2022-09-03T11:48:46.018Z,20.30
2022-09-03T11:51:42.087Z,20.10
2022-09-03T11:54:21.106Z,20.10
2022-09-03T11:56:49.762Z,20.40
2022-09-03T11:59:24.592Z,20.50
2022-09-03T12:02:02.156Z,20.80
2022-09-03T12:04:46.334Z,20.70
2022-09-03T12:11:02.040Z,21.20
2022-09-03T12:13:56.639Z,21.90
2022-09-03T12:22:44.162Z,22.70
2022-09-03T12:25:15.764Z,22.80
2022-09-03T12:27:45.577Z,22.90
2022-09-03T12:30:19.066Z,23.10
2022-09-03T12:32:48.161Z,23.20
2022-09-03T12:38:18.234Z,24.10
2022-09-03T12:43:37.571Z,23.30
2022-09-03T12:46:10.438Z,23.60
2022-09-03T12:48:40.539Z,23.30
2022-09-03T12:53:57.126Z,23.60
2022-09-03T12:56:25.882Z,23.30
2022-09-03T12:59:01.534Z,22.30
2022-09-03T13:01:38.385Z,22.10
2022-09-03T13:04:34.427Z,22.00
2022-09-03T13:07:14.389Z,22.40
2022-09-03T13:09:42.173Z,22.40
2022-09-03T13:12:22.553Z,22.30
2022-09-03T13:14:52.412Z,22.10
2022-09-03T13:17:37.603Z,22.00
2022-09-03T13:20:29.321Z,22.10
2022-09-03T13:23:12.915Z,21.90
2022-09-03T13:26:08.406Z,22.30
2022-09-03T13:28:50.846Z,22.40
2022-09-03T13:31:27.768Z,22.10
2022-09-03T13:34:01.389Z,21.70
2022-09-03T13:36:36.928Z,21.70
2022-09-03T13:39:09.381Z,21.70
2022-09-03T13:42:14.028Z,21.80
2022-09-03T13:45:08.834Z,21.90
2022-09-03T13:48:01.899Z,22.20
2022-09-03T13:50:31.407Z,22.40
2022-09-03T13:53:04.769Z,22.70
2022-09-03T13:55:31.327Z,22.40
2022-09-03T13:58:28.568Z,22.60
2022-09-03T14:00:58.399Z,22.20
2022-09-03T14:03:31.170Z,22.00
2022-09-03T14:06:32.482Z,22.00
2022-09-03T14:09:21.648Z,22.00
2022-09-03T14:12:10.227Z,22.20
2022-09-03T14:15:00.818Z,22.30
2022-09-03T14:17:41.720Z,22.20
2022-09-03T14:20:28.918Z,22.10
2022-09-03T14:23:28.333Z,22.20
2022-09-03T14:26:00.040Z,22.20
2022-09-03T14:28:34.410Z,22.20
2022-09-03T14:31:17.349Z,22.10
2022-09-03T14:34:08.453Z,22.00
2022-09-03T14:36:44.250Z,21.90
2022-09-03T14:39:27.859Z,21.90
2022-09-03T14:42:11.671Z,21.60
2022-09-03T14:44:47.852Z,21.70
2022-09-03T14:47:52.993Z,21.80
2022-09-03T14:50:38.431Z,21.70
2022-09-03T14:53:07.966Z,21.70
2022-09-03T14:55:49.074Z,21.70
2022-09-03T14:58:44.379Z,21.90
2022-09-03T15:01:16.092Z,21.90
2022-09-03T15:03:42.751Z,22.10
2022-09-03T15:06:30.724Z,22.00
2022-09-03T15:09:32.263Z,22.10
2022-09-03T15:12:19.473Z,22.00
2022-09-03T15:15:03.191Z,22.10
2022-09-03T15:17:47.363Z,22.00
2022-09-03T15:20:35.812Z,22.10
2022-09-03T15:23:11.759Z,22.10
2022-09-03T15:25:54.046Z,22.20
2022-09-03T15:29:04.289Z,22.20
2022-09-03T15:31:53.261Z,22.10
2022-09-03T15:34:35.899Z,22.00
2022-09-03T15:37:11.963Z,21.90
2022-09-03T15:39:44.452Z,21.90
2022-09-03T15:42:23.654Z,21.90
2022-09-03T15:44:54.932Z,21.80
2022-09-03T15:47:54.306Z,21.80
2022-09-03T15:50:52.723Z,21.80
2022-09-03T15:53:39.621Z,21.80
2022-09-03T15:56:13.037Z,21.80
2022-09-03T15:59:17.960Z,21.80
2022-09-03T16:01:54.118Z,21.70
2022-09-03T16:04:26.909Z,21.70
2022-09-03T16:07:03.708Z,21.70
2022-09-03T16:10:07.604Z,21.80
2022-09-03T16:12:40.619Z,21.80
2022-09-03T16:15:11.852Z,21.80
2022-09-03T16:18:08.980Z,21.90
2022-09-03T16:20:55.132Z,21.90
2022-09-03T16:23:30.427Z,21.80
2022-09-03T16:26:45.807Z,21.70
2022-09-03T16:29:16.365Z,21.70
2022-09-03T16:32:09.101Z,21.60
2022-09-03T16:34:55.798Z,21.60
2022-09-03T16:37:58.693Z,21.60
2022-09-03T16:40:51.712Z,21.60
2022-09-03T16:43:41.604Z,21.50
2022-09-03T16:46:30.055Z,21.40
2022-09-03T16:49:26.897Z,21.30
2022-09-03T16:52:16.623Z,21.30
2022-09-03T16:54:57.117Z,21.20
2022-09-03T16:57:59.000Z,21.10
2022-09-03T17:00:57.406Z,21.10
2022-09-03T17:03:57.073Z,21.10
2022-09-03T17:06:30.733Z,21.00
2022-09-03T17:09:02.993Z,21.00
2022-09-03T17:11:59.108Z,20.90
2022-09-03T17:15:10.090Z,20.90
2022-09-03T17:17:53.603Z,20.90
2022-09-03T17:20:49.060Z,20.90
2022-09-03T17:23:38.006Z,20.90
2022-09-03T17:26:45.702Z,20.90
2022-09-03T17:29:52.853Z,20.80
2022-09-03T17:32:32.632Z,20.70
2022-09-03T17:35:17.073Z,20.60
2022-09-03T17:38:05.342Z,20.50
2022-09-03T17:40:53.489Z,20.50
2022-09-03T17:43:54.022Z,20.40
2022-09-03T17:46:35.515Z,20.50
2022-09-03T17:49:06.990Z,20.40
2022-09-03T17:51:59.816Z,20.30
2022-09-03T17:54:49.471Z,20.30
2022-09-03T17:57:30.980Z,20.20
2022-09-03T18:00:05.451Z,20.20
2022-09-03T18:02:40.159Z,20.20
2022-09-03T18:05:27.402Z,20.10
2022-09-03T18:11:18.575Z,19.90
2022-09-03T18:13:57.913Z,19.80
2022-09-03T18:16:35.470Z,19.70
2022-09-03T18:19:32.251Z,19.60
2022-09-03T18:22:22.848Z,19.60
2022-09-03T18:25:22.471Z,19.60
2022-09-03T18:28:17.364Z,19.50
2022-09-03T18:34:12.996Z,19.50
2022-09-03T18:36:58.679Z,19.60
2022-09-03T18:39:47.185Z,19.60
2022-09-03T18:42:41.417Z,19.40
2022-09-03T18:45:47.808Z,19.40
2022-09-03T18:48:37.295Z,19.30
2022-09-03T18:51:50.694Z,19.20
2022-09-03T18:55:08.066Z,19.20
2022-09-03T18:58:10.603Z,19.10
2022-09-03T19:04:34.823Z,19.00
2022-09-03T19:07:48.666Z,19.00
2022-09-03T19:13:56.378Z,19.00
2022-09-03T19:16:51.080Z,19.00
2022-09-03T19:19:51.598Z,19.00
2022-09-03T19:22:55.518Z,19.00
2022-09-03T19:25:42.942Z,18.90
2022-09-03T19:32:03.043Z,18.80
2022-09-03T19:35:07.491Z,18.80
2022-09-03T19:38:32.681Z,18.70
2022-09-03T19:41:45.600Z,18.60
2022-09-03T19:45:09.277Z,18.60
2022-09-03T19:48:09.815Z,18.60
2022-09-03T19:54:14.571Z,18.50
2022-09-03T19:57:00.856Z,18.50
2022-09-03T19:59:52.582Z,18.40
2022-09-03T20:05:47.604Z,18.30
2022-09-03T20:08:36.266Z,18.20
2022-09-03T20:11:05.201Z,18.20
2022-09-03T20:17:12.875Z,18.10
2022-09-03T20:20:07.154Z,18.00
2022-09-03T20:22:42.815Z,18.00
2022-09-03T20:28:45.712Z,18.00
2022-09-03T20:31:25.830Z,17.90
2022-09-03T20:37:12.788Z,17.90
2022-09-03T20:39:49.813Z,18.00
2022-09-03T20:45:54.862Z,18.00
2022-09-03T20:48:36.953Z,17.90
2022-09-03T20:51:12.009Z,17.90
2022-09-03T20:53:59.923Z,17.90
2022-09-03T20:59:59.539Z,17.80
2022-09-03T21:02:48.582Z,17.80
2022-09-03T21:08:55.118Z,17.70
2022-09-03T21:11:38.531Z,17.70
2022-09-03T21:18:24.171Z,17.50
2022-09-03T21:21:05.925Z,17.50
2022-09-03T21:23:41.098Z,17.40
2022-09-03T21:26:25.354Z,17.40
2022-09-03T21:29:09.539Z,17.30
2022-09-03T21:32:08.122Z,17.30
2022-09-03T21:34:58.507Z,17.20
2022-09-03T21:37:25.261Z,17.20
2022-09-03T21:39:56.518Z,17.20
2022-09-03T21:42:42.177Z,17.20
2022-09-03T21:45:37.169Z,17.10
2022-09-03T21:48:12.754Z,17.10
2022-09-03T21:50:46.381Z,17.10
2022-09-03T21:53:27.507Z,17.10
2022-09-03T21:56:03.219Z,17.10
2022-09-03T21:58:48.718Z,17.10
2022-09-03T22:01:32.309Z,17.00
2022-09-03T22:03:59.159Z,17.00
2022-09-03T22:06:42.864Z,17.00
2022-09-03T22:09:13.430Z,17.00
2022-09-03T22:11:49.966Z,17.10
2022-09-03T22:14:19.912Z,17.00
2022-09-03T22:16:50.146Z,17.00
2022-09-03T22:19:16.786Z,17.00
2022-09-03T22:21:59.382Z,16.90
2022-09-03T22:24:50.915Z,16.90
2022-09-03T22:27:44.649Z,16.90
2022-09-03T22:30:21.444Z,16.90
2022-09-03T22:33:15.483Z,16.80
2022-09-03T22:35:55.422Z,16.70
2022-09-03T22:38:48.404Z,16.60
2022-09-03T22:41:27.237Z,16.60
2022-09-03T22:44:20.588Z,16.60
2022-09-03T22:47:11.774Z,16.50
2022-09-03T22:49:53.165Z,16.60
2022-09-03T22:52:29.970Z,16.60
2022-09-03T22:55:05.468Z,16.60
2022-09-03T22:57:38.202Z,16.50
2022-09-03T23:00:10.304Z,16.50
2022-09-03T23:02:37.979Z,16.50
2022-09-03T23:05:38.671Z,16.50
2022-09-03T23:08:17.857Z,16.50
2022-09-03T23:10:44.531Z,16.50
2022-09-03T23:13:25.005Z,16.50
2022-09-03T23:22:00.387Z,16.50
2022-09-03T23:24:56.815Z,16.60
2022-09-03T23:27:34.306Z,16.50
2022-09-03T23:30:02.480Z,16.50
2022-09-03T23:32:33.300Z,16.50
2022-09-03T23:35:04.358Z,16.50
2022-09-03T23:37:34.887Z,16.50
2022-09-03T23:40:04.995Z,16.50
2022-09-03T23:42:53.256Z,16.40
2022-09-03T23:45:23.012Z,16.40
2022-09-03T23:47:54.717Z,16.50
2022-09-03T23:51:00.179Z,16.40
2022-09-03T23:57:03.993Z,16.50
